sensor_id;sensor_type;location;lat;lon;timestamp;pressure;altitude;pressure_sealevel;temperature;humidity
6680;BME280;3376;42.664;23.346;2023-02-23T00:00:18;94379.03;;;7.93;78.02
6680;BME280;3376;42.664;23.346;2023-02-23T00:02:53;94393.19;;;8.13;77.97
6680;BME280;3376;42.664;23.346;2023-02-23T00:05:23;94324.41;;;7.74;77.14
6680;BME280;3376;42.664;23.346;2023-02-23T00:07:50;94372.91;;;7.94;76.41
6680;BME280;3376;42.664;23.346;2023-02-23T00:10:19;94377.41;;;7.84;76.95
6680;BME280;3376;42.664;23.346;2023-02-23T00:12:47;94400.31;;;7.79;77.03
6680;BME280;3376;42.664;23.346;2023-02-23T00:15:14;94398.69;;;7.78;77.42
6680;BME280;3376;42.664;23.346;2023-02-23T00:17:43;94394.34;;;7.79;77.40
6680;BME280;3376;42.664;23.346;2023-02-23T00:20:12;94387.91;;;7.59;77.66
6680;BME280;3376;42.664;23.346;2023-02-23T00:22:41;94369.38;;;7.47;77.91
6680;BME280;3376;42.664;23.346;2023-02-23T00:25:09;94368.91;;;7.44;79.22
6680;BME280;3376;42.664;23.346;2023-02-23T00:27:37;94397.41;;;7.58;80.05
6680;BME280;3376;42.664;23.346;2023-02-23T00:30:10;94380.47;;;7.48;79.58
6680;BME280;3376;42.664;23.346;2023-02-23T00:32:37;94370.97;;;7.40;80.30
6680;BME280;3376;42.664;23.346;2023-02-23T00:35:06;94400.63;;;7.68;79.96
6680;BME280;3376;42.664;23.346;2023-02-23T00:37:36;94398.06;;;7.76;79.44
6680;BME280;3376;42.664;23.346;2023-02-23T00:40:04;94393.38;;;7.72;79.85
6680;BME280;3376;42.664;23.346;2023-02-23T00:42:37;94398.38;;;7.81;78.80
6680;BME280;3376;42.664;23.346;2023-02-23T00:45:05;94398.22;;;7.83;78.51
6680;BME280;3376;42.664;23.346;2023-02-23T00:47:35;94402.72;;;7.97;76.31
6680;BME280;3376;42.664;23.346;2023-02-23T00:50:04;94386.47;;;7.88;77.14
6680;BME280;3376;42.664;23.346;2023-02-23T00:52:32;94406.09;;;7.89;76.24
6680;BME280;3376;42.664;23.346;2023-02-23T00:54:58;94402.06;;;7.87;76.08
6680;BME280;3376;42.664;23.346;2023-02-23T00:57:25;94393.03;;;7.75;76.30
6680;BME280;3376;42.664;23.346;2023-02-23T00:59:52;94397.41;;;7.74;77.18
6680;BME280;3376;42.664;23.346;2023-02-23T01:02:18;94398.38;;;7.81;76.13
6680;BME280;3376;42.664;23.346;2023-02-23T01:04:45;94382.09;;;7.81;76.53
6680;BME280;3376;42.664;23.346;2023-02-23T01:07:13;94399.03;;;7.91;75.53
6680;BME280;3376;42.664;23.346;2023-02-23T01:09:40;94383.69;;;7.82;76.10
6680;BME280;3376;42.664;23.346;2023-02-23T01:12:07;94390.63;;;7.73;76.20
6680;BME280;3376;42.664;23.346;2023-02-23T01:14:35;94385.81;;;7.70;76.88
6680;BME280;3376;42.664;23.346;2023-02-23T01:17:03;94391.94;;;7.69;77.28
6680;BME280;3376;42.664;23.346;2023-02-23T01:19:29;94387.41;;;7.55;77.50
6680;BME280;3376;42.664;23.346;2023-02-23T01:21:58;94385.00;;;7.54;77.29
6680;BME280;3376;42.664;23.346;2023-02-23T01:24:28;94246.63;;;6.58;77.19
6680;BME280;3376;42.664;23.346;2023-02-23T01:26:54;94378.56;;;7.42;77.65
6680;BME280;3376;42.664;23.346;2023-02-23T01:29:21;94383.22;;;7.38;77.63
6680;BME280;3376;42.664;23.346;2023-02-23T01:31:49;94375.63;;;7.29;78.65
6680;BME280;3376;42.664;23.346;2023-02-23T01:34:17;94362.13;;;7.27;78.36
6680;BME280;3376;42.664;23.346;2023-02-23T01:36:44;94392.72;;;7.30;78.82
6680;BME280;3376;42.664;23.346;2023-02-23T01:39:13;94386.25;;;7.34;78.22
6680;BME280;3376;42.664;23.346;2023-02-23T01:41:42;94387.41;;;7.31;78.52
6680;BME280;3376;42.664;23.346;2023-02-23T01:47:08;94378.69;;;7.24;78.58
6680;BME280;3376;42.664;23.346;2023-02-23T01:49:35;94370.63;;;7.19;79.62
6680;BME280;3376;42.664;23.346;2023-02-23T01:52:06;94381.09;;;7.26;79.56
6680;BME280;3376;42.664;23.346;2023-02-23T01:54:36;94026.06;;;5.04;79.57
6680;BME280;3376;42.664;23.346;2023-02-23T01:57:07;94376.09;;;7.24;79.63
6680;BME280;3376;42.664;23.346;2023-02-23T01:59:38;94358.25;;;7.14;79.07
6680;BME280;3376;42.664;23.346;2023-02-23T02:02:06;94377.88;;;7.24;79.25
6680;BME280;3376;42.664;23.346;2023-02-23T02:04:35;94328.72;;;6.85;79.81
6680;BME280;3376;42.664;23.346;2023-02-23T02:07:09;94362.84;;;6.95;80.02
6680;BME280;3376;42.664;23.346;2023-02-23T02:09:36;94368.66;;;6.97;80.84
6680;BME280;3376;42.664;23.346;2023-02-23T02:12:09;94359.13;;;6.89;80.75
6680;BME280;3376;42.664;23.346;2023-02-23T02:14:37;94364.59;;;6.86;80.88
6680;BME280;3376;42.664;23.346;2023-02-23T02:17:20;94336.06;;;6.64;80.83
6680;BME280;3376;42.664;23.346;2023-02-23T02:20:19;94372.59;;;6.75;81.46
6680;BME280;3376;42.664;23.346;2023-02-23T02:23:22;94371.31;;;6.71;82.43
6680;BME280;3376;42.664;23.346;2023-02-23T02:26:03;94372.41;;;6.69;82.43
6680;BME280;3376;42.664;23.346;2023-02-23T02:34:56;94386.94;;;6.78;82.01
6680;BME280;3376;42.664;23.346;2023-02-23T02:37:58;94372.41;;;6.69;82.12
6680;BME280;3376;42.664;23.346;2023-02-23T02:40:35;94378.88;;;6.73;81.24
6680;BME280;3376;42.664;23.346;2023-02-23T02:43:22;94382.53;;;6.62;81.32
6680;BME280;3376;42.664;23.346;2023-02-23T02:45:52;94375.63;;;6.63;81.73
6680;BME280;3376;42.664;23.346;2023-02-23T02:48:30;94374.63;;;6.56;82.52
6680;BME280;3376;42.664;23.346;2023-02-23T02:51:03;94348.16;;;6.38;83.85
6680;BME280;3376;42.664;23.346;2023-02-23T02:53:39;94368.69;;;6.55;83.00
6680;BME280;3376;42.664;23.346;2023-02-23T02:56:07;94372.53;;;6.51;83.14
6680;BME280;3376;42.664;23.346;2023-02-23T02:58:36;94374.28;;;6.51;83.29
6680;BME280;3376;42.664;23.346;2023-02-23T03:01:12;94366.38;;;6.44;83.00
6680;BME280;3376;42.664;23.346;2023-02-23T03:03:57;94359.78;;;6.42;82.88
6680;BME280;3376;42.664;23.346;2023-02-23T03:06:45;94354.75;;;6.32;83.20
6680;BME280;3376;42.664;23.346;2023-02-23T03:09:37;94371.78;;;6.33;84.09
6680;BME280;3376;42.664;23.346;2023-02-23T03:12:31;94372.19;;;6.21;84.60
6680;BME280;3376;42.664;23.346;2023-02-23T03:15:27;94374.44;;;6.16;84.80
6680;BME280;3376;42.664;23.346;2023-02-23T03:18:24;93986.84;;;3.58;86.22
6680;BME280;3376;42.664;23.346;2023-02-23T03:21:17;94376.66;;;6.11;85.92
6680;BME280;3376;42.664;23.346;2023-02-23T03:24:10;94386.19;;;6.18;86.42
6680;BME280;3376;42.664;23.346;2023-02-23T03:27:03;94388.59;;;6.20;86.63
6680;BME280;3376;42.664;23.346;2023-02-23T03:29:53;94376.34;;;6.14;86.72
6680;BME280;3376;42.664;23.346;2023-02-23T03:32:43;94390.88;;;6.23;86.91
6680;BME280;3376;42.664;23.346;2023-02-23T03:35:34;94374.34;;;6.25;85.62
6680;BME280;3376;42.664;23.346;2023-02-23T03:38:25;94381.59;;;6.30;85.36
6680;BME280;3376;42.664;23.346;2023-02-23T03:41:13;94389.59;;;6.27;84.85
6680;BME280;3376;42.664;23.346;2023-02-23T03:44:03;94394.09;;;6.25;85.35
6680;BME280;3376;42.664;23.346;2023-02-23T03:46:50;94349.19;;;5.85;86.15
6680;BME280;3376;42.664;23.346;2023-02-23T03:49:37;94375.41;;;5.89;85.76
6680;BME280;3376;42.664;23.346;2023-02-23T03:52:26;94395.84;;;5.98;86.18
6680;BME280;3376;42.664;23.346;2023-02-23T03:55:16;94350.25;;;5.57;86.78
6680;BME280;3376;42.664;23.346;2023-02-23T03:58:02;94371.31;;;5.61;88.02
6680;BME280;3376;42.664;23.346;2023-02-23T04:00:49;94404.50;;;5.89;88.46
6680;BME280;3376;42.664;23.346;2023-02-23T04:03:39;94328.22;;;5.29;88.20
6680;BME280;3376;42.664;23.346;2023-02-23T04:06:28;94404.34;;;5.73;88.32
6680;BME280;3376;42.664;23.346;2023-02-23T04:09:15;94278.56;;;4.86;89.81
6680;BME280;3376;42.664;23.346;2023-02-23T04:12:02;94406.19;;;5.63;90.12
6680;BME280;3376;42.664;23.346;2023-02-23T04:14:54;94405.72;;;5.68;90.44
6680;BME280;3376;42.664;23.346;2023-02-23T04:17:25;94366.06;;;5.45;91.01
6680;BME280;3376;42.664;23.346;2023-02-23T04:19:57;94372.69;;;5.73;91.38
6680;BME280;3376;42.664;23.346;2023-02-23T04:22:24;94405.34;;;5.80;91.45
6680;BME280;3376;42.664;23.346;2023-02-23T04:24:51;94392.88;;;5.68;92.03
6680;BME280;3376;42.664;23.346;2023-02-23T04:27:18;94359.13;;;5.45;92.47
6680;BME280;3376;42.664;23.346;2023-02-23T04:29:45;94399.03;;;5.75;93.04
6680;BME280;3376;42.664;23.346;2023-02-23T04:32:13;94397.50;;;5.82;91.65
6680;BME280;3376;42.664;23.346;2023-02-23T04:34:42;94386.19;;;5.75;93.55
6680;BME280;3376;42.664;23.346;2023-02-23T04:37:09;94403.06;;;5.95;93.03
6680;BME280;3376;42.664;23.346;2023-02-23T04:39:36;94409.31;;;5.92;91.18
6680;BME280;3376;42.664;23.346;2023-02-23T04:42:03;94393.44;;;5.79;90.79
6680;BME280;3376;42.664;23.346;2023-02-23T04:44:29;94398.88;;;5.76;91.19
6680;BME280;3376;42.664;23.346;2023-02-23T04:46:57;94401.03;;;5.81;91.63
6680;BME280;3376;42.664;23.346;2023-02-23T04:49:24;94403.72;;;5.79;90.27
6680;BME280;3376;42.664;23.346;2023-02-23T04:51:52;94395.59;;;5.66;90.72
6680;BME280;3376;42.664;23.346;2023-02-23T04:54:19;94403.00;;;5.69;90.93
6680;BME280;3376;42.664;23.346;2023-02-23T04:56:45;94382.03;;;5.56;89.71
6680;BME280;3376;42.664;23.346;2023-02-23T04:59:12;94408.16;;;5.69;89.51
6680;BME280;3376;42.664;23.346;2023-02-23T05:01:39;94366.22;;;5.43;89.68
6680;BME280;3376;42.664;23.346;2023-02-23T05:04:06;94407.28;;;5.61;89.60
6680;BME280;3376;42.664;23.346;2023-02-23T05:06:33;94388.28;;;5.54;89.48
6680;BME280;3376;42.664;23.346;2023-02-23T05:09:01;94405.88;;;5.66;89.53
6680;BME280;3376;42.664;23.346;2023-02-23T05:11:29;94405.81;;;5.58;90.75
6680;BME280;3376;42.664;23.346;2023-02-23T05:13:56;94402.59;;;5.56;91.16
6680;BME280;3376;42.664;23.346;2023-02-23T05:16:23;94410.50;;;5.45;90.87
6680;BME280;3376;42.664;23.346;2023-02-23T05:18:49;94412.28;;;5.45;91.64
6680;BME280;3376;42.664;23.346;2023-02-23T05:21:16;94414.06;;;5.44;92.20
6680;BME280;3376;42.664;23.346;2023-02-23T05:23:43;94416.97;;;5.49;92.84
6680;BME280;3376;42.664;23.346;2023-02-23T05:26:12;94420.38;;;5.50;93.29
6680;BME280;3376;42.664;23.346;2023-02-23T05:28:40;94421.44;;;5.65;100.00
6680;BME280;3376;42.664;23.346;2023-02-23T05:31:08;94418.72;;;5.66;95.69
6680;BME280;3376;42.664;23.346;2023-02-23T05:33:36;94423.13;;;5.91;93.40
6680;BME280;3376;42.664;23.346;2023-02-23T05:36:07;94429.72;;;6.12;92.91
6680;BME280;3376;42.664;23.346;2023-02-23T05:38:34;94276.94;;;5.20;91.63
6680;BME280;3376;42.664;23.346;2023-02-23T05:41:04;94432.47;;;6.18;90.82
6680;BME280;3376;42.664;23.346;2023-02-23T05:43:32;94436.56;;;6.29;87.92
6680;BME280;3376;42.664;23.346;2023-02-23T05:45:59;94446.34;;;6.25;88.28
6680;BME280;3376;42.664;23.346;2023-02-23T05:48:27;94436.66;;;6.19;88.67
6680;BME280;3376;42.664;23.346;2023-02-23T05:50:53;94440.34;;;6.17;89.04
6680;BME280;3376;42.664;23.346;2023-02-23T05:53:20;94446.84;;;6.29;87.29
6680;BME280;3376;42.664;23.346;2023-02-23T05:55:47;94455.88;;;6.33;89.17
6680;BME280;3376;42.664;23.346;2023-02-23T05:58:13;94442.66;;;6.28;89.85
6680;BME280;3376;42.664;23.346;2023-02-23T06:00:42;94433.03;;;6.30;89.33
6680;BME280;3376;42.664;23.346;2023-02-23T06:03:09;94467.75;;;6.51;89.11
6680;BME280;3376;42.664;23.346;2023-02-23T06:05:35;94460.59;;;6.71;86.56
6680;BME280;3376;42.664;23.346;2023-02-23T06:08:02;94446.41;;;6.67;84.57
6680;BME280;3376;42.664;23.346;2023-02-23T06:10:29;94459.69;;;6.88;84.35
6680;BME280;3376;42.664;23.346;2023-02-23T06:12:56;94467.88;;;7.25;84.67
6680;BME280;3376;42.664;23.346;2023-02-23T06:15:22;94468.09;;;7.48;83.40
6680;BME280;3376;42.664;23.346;2023-02-23T06:17:50;94475.41;;;7.84;82.12
6680;BME280;3376;42.664;23.346;2023-02-23T06:20:18;94469.13;;;8.19;79.66
6680;BME280;3376;42.664;23.346;2023-02-23T06:22:44;94479.59;;;8.58;77.31
6680;BME280;3376;42.664;23.346;2023-02-23T06:25:12;94479.66;;;8.96;76.02
6680;BME280;3376;42.664;23.346;2023-02-23T06:27:39;94439.00;;;8.90;73.02
6680;BME280;3376;42.664;23.346;2023-02-23T06:30:07;94469.09;;;9.44;72.65
6680;BME280;3376;42.664;23.346;2023-02-23T06:32:35;94482.94;;;9.82;71.21
6680;BME280;3376;42.664;23.346;2023-02-23T06:35:04;94482.75;;;10.14;69.79
6680;BME280;3376;42.664;23.346;2023-02-23T06:37:31;94491.00;;;10.32;67.60
6680;BME280;3376;42.664;23.346;2023-02-23T06:39:59;94489.34;;;10.39;66.86
6680;BME280;3376;42.664;23.346;2023-02-23T06:42:25;94487.72;;;10.76;65.31
6680;BME280;3376;42.664;23.346;2023-02-23T06:44:52;94494.25;;;11.01;63.10
6680;BME280;3376;42.664;23.346;2023-02-23T06:47:19;94484.22;;;11.27;61.64
6680;BME280;3376;42.664;23.346;2023-02-23T06:49:46;94496.47;;;11.33;60.98
6680;BME280;3376;42.664;23.346;2023-02-23T06:52:14;94487.06;;;11.32;60.28
6680;BME280;3376;42.664;23.346;2023-02-23T06:54:41;94505.31;;;11.53;58.88
6680;BME280;3376;42.664;23.346;2023-02-23T06:57:08;94497.53;;;11.53;59.72
6680;BME280;3376;42.664;23.346;2023-02-23T06:59:35;94503.88;;;12.01;57.66
6680;BME280;3376;42.664;23.346;2023-02-23T07:02:03;94498.03;;;12.89;56.89
6680;BME280;3376;42.664;23.346;2023-02-23T07:04:31;94500.81;;;14.03;53.93
6680;BME280;3376;42.664;23.346;2023-02-23T07:06:58;94491.88;;;14.65;51.23
6680;BME280;3376;42.664;23.346;2023-02-23T07:09:27;94504.78;;;15.63;50.04
6680;BME280;3376;42.664;23.346;2023-02-23T07:11:53;94487.25;;;16.52;47.01
6680;BME280;3376;42.664;23.346;2023-02-23T07:14:20;94490.81;;;17.06;44.75
6680;BME280;3376;42.664;23.346;2023-02-23T07:16:47;94468.84;;;17.07;42.54
6680;BME280;3376;42.664;23.346;2023-02-23T07:19:14;94493.47;;;17.24;42.83
6680;BME280;3376;42.664;23.346;2023-02-23T07:21:40;94464.53;;;17.37;42.83
6680;BME280;3376;42.664;23.346;2023-02-23T07:24:07;94498.13;;;18.13;41.79
6680;BME280;3376;42.664;23.346;2023-02-23T07:26:35;94487.75;;;19.00;39.68
6680;BME280;3376;42.664;23.346;2023-02-23T07:29:02;94352.72;;;18.73;38.36
6680;BME280;3376;42.664;23.346;2023-02-23T07:31:29;94490.59;;;20.08;37.11
6680;BME280;3376;42.664;23.346;2023-02-23T07:33:56;94489.34;;;20.10;36.68
6680;BME280;3376;42.664;23.346;2023-02-23T07:36:23;94478.31;;;19.85;36.68
6680;BME280;3376;42.664;23.346;2023-02-23T07:38:50;94493.31;;;20.13;36.86
6680;BME280;3376;42.664;23.346;2023-02-23T07:41:18;94489.88;;;20.24;36.09
6680;BME280;3376;42.664;23.346;2023-02-23T07:43:46;94480.19;;;20.41;35.81
6680;BME280;3376;42.664;23.346;2023-02-23T07:46:13;94491.63;;;20.63;35.35
6680;BME280;3376;42.664;23.346;2023-02-23T07:48:41;94444.91;;;20.70;35.09
6680;BME280;3376;42.664;23.346;2023-02-23T07:51:10;94490.31;;;21.27;34.02
6680;BME280;3376;42.664;23.346;2023-02-23T07:53:37;94478.69;;;21.06;37.71
6680;BME280;3376;42.664;23.346;2023-02-23T07:56:05;94483.13;;;20.89;40.13
6680;BME280;3376;42.664;23.346;2023-02-23T07:58:33;94483.44;;;20.92;36.18
6680;BME280;3376;42.664;23.346;2023-02-23T08:01:01;94480.81;;;20.92;36.96
6680;BME280;3376;42.664;23.346;2023-02-23T08:03:27;94487.53;;;21.00;36.84
6680;BME280;3376;42.664;23.346;2023-02-23T08:05:54;94478.56;;;20.84;34.89
6680;BME280;3376;42.664;23.346;2023-02-23T08:08:22;94482.22;;;20.67;37.20
6680;BME280;3376;42.664;23.346;2023-02-23T08:10:48;94476.38;;;20.48;36.21
6680;BME280;3376;42.664;23.346;2023-02-23T08:13:15;94478.22;;;20.64;37.20
6680;BME280;3376;42.664;23.346;2023-02-23T08:15:42;94478.50;;;20.96;37.45
6680;BME280;3376;42.664;23.346;2023-02-23T08:18:10;94470.78;;;21.06;35.99
6680;BME280;3376;42.664;23.346;2023-02-23T08:20:37;94470.72;;;21.39;34.46
6680;BME280;3376;42.664;23.346;2023-02-23T08:23:04;94454.63;;;21.36;34.61
6680;BME280;3376;42.664;23.346;2023-02-23T08:25:31;94477.38;;;21.25;34.81
6680;BME280;3376;42.664;23.346;2023-02-23T08:27:58;94406.91;;;20.99;33.75
6680;BME280;3376;42.664;23.346;2023-02-23T08:30:29;94461.31;;;21.10;35.18
6680;BME280;3376;42.664;23.346;2023-02-23T08:32:56;94488.22;;;21.45;34.54
6680;BME280;3376;42.664;23.346;2023-02-23T08:35:24;94484.72;;;21.78;33.43
6680;BME280;3376;42.664;23.346;2023-02-23T08:37:51;94465.16;;;21.95;32.92
6680;BME280;3376;42.664;23.346;2023-02-23T08:40:18;94314.53;;;21.49;32.17
6680;BME280;3376;42.664;23.346;2023-02-23T08:42:45;94478.22;;;22.87;31.89
6680;BME280;3376;42.664;23.346;2023-02-23T08:47:58;94478.50;;;23.22;30.60
6680;BME280;3376;42.664;23.346;2023-02-23T08:50:26;94484.97;;;23.31;31.14
6680;BME280;3376;42.664;23.346;2023-02-23T08:52:53;94482.19;;;23.58;30.12
6680;BME280;3376;42.664;23.346;2023-02-23T08:55:20;94473.53;;;22.94;30.71
6680;BME280;3376;42.664;23.346;2023-02-23T08:57:48;94476.22;;;22.99;30.89
6680;BME280;3376;42.664;23.346;2023-02-23T09:00:15;94483.75;;;23.17;30.57
6680;BME280;3376;42.664;23.346;2023-02-23T09:02:43;94483.16;;;23.42;30.58
6680;BME280;3376;42.664;23.346;2023-02-23T09:05:12;94475.78;;;23.12;30.39
6680;BME280;3376;42.664;23.346;2023-02-23T09:07:41;94479.44;;;23.06;31.20
6680;BME280;3376;42.664;23.346;2023-02-23T09:10:11;94477.72;;;23.26;30.53
6680;BME280;3376;42.664;23.346;2023-02-23T09:12:38;94473.41;;;23.10;31.13
6680;BME280;3376;42.664;23.346;2023-02-23T09:15:06;94426.69;;;22.84;31.05
6680;BME280;3376;42.664;23.346;2023-02-23T09:17:32;94476.59;;;23.49;30.75
6680;BME280;3376;42.664;23.346;2023-02-23T09:19:59;94468.19;;;23.62;30.27
6680;BME280;3376;42.664;23.346;2023-02-23T09:22:26;94476.63;;;24.01;29.34
6680;BME280;3376;42.664;23.346;2023-02-23T09:24:54;94445.50;;;23.71;29.89
6680;BME280;3376;42.664;23.346;2023-02-23T09:27:21;94437.88;;;23.90;29.65
6680;BME280;3376;42.664;23.346;2023-02-23T09:29:47;94457.84;;;23.56;29.59
6680;BME280;3376;42.664;23.346;2023-02-23T09:32:14;94475.41;;;23.77;30.48
6680;BME280;3376;42.664;23.346;2023-02-23T09:34:41;94455.91;;;23.36;30.97
6680;BME280;3376;42.664;23.346;2023-02-23T09:37:08;94477.66;;;23.16;30.78
6680;BME280;3376;42.664;23.346;2023-02-23T09:39:34;94470.38;;;23.28;30.40
6680;BME280;3376;42.664;23.346;2023-02-23T09:42:18;94472.41;;;23.53;30.32
6680;BME280;3376;42.664;23.346;2023-02-23T09:44:57;94468.81;;;23.79;29.66
6680;BME280;3376;42.664;23.346;2023-02-23T09:47:37;94477.53;;;23.80;29.91
6680;BME280;3376;42.664;23.346;2023-02-23T09:50:16;94471.28;;;23.96;29.51
6680;BME280;3376;42.664;23.346;2023-02-23T09:52:47;94471.22;;;23.86;29.71
6680;BME280;3376;42.664;23.346;2023-02-23T09:55:15;94479.47;;;23.94;29.86
6680;BME280;3376;42.664;23.346;2023-02-23T09:57:46;94456.84;;;24.28;28.54
6680;BME280;3376;42.664;23.346;2023-02-23T10:00:17;94473.31;;;24.61;28.39
6680;BME280;3376;42.664;23.346;2023-02-23T10:02:57;94463.56;;;24.86;27.80
6680;BME280;3376;42.664;23.346;2023-02-23T10:05:27;94461.19;;;25.00;27.54
6680;BME280;3376;42.664;23.346;2023-02-23T10:07:59;94394.41;;;24.73;27.49
6680;BME280;3376;42.664;23.346;2023-02-23T10:10:33;94464.63;;;25.15;27.82
6680;BME280;3376;42.664;23.346;2023-02-23T10:13:10;94460.38;;;24.79;27.67
6680;BME280;3376;42.664;23.346;2023-02-23T10:15:43;94454.56;;;25.02;27.93
6680;BME280;3376;42.664;23.346;2023-02-23T10:18:21;94458.53;;;25.05;27.62
6680;BME280;3376;42.664;23.346;2023-02-23T10:20:58;94448.47;;;24.82;28.08
6680;BME280;3376;42.664;23.346;2023-02-23T10:23:29;94454.31;;;24.89;27.72
6680;BME280;3376;42.664;23.346;2023-02-23T10:25:59;94446.31;;;24.64;27.79
6680;BME280;3376;42.664;23.346;2023-02-23T10:28:32;93975.94;;;21.25;28.07
6680;BME280;3376;42.664;23.346;2023-02-23T10:31:00;94438.28;;;23.52;28.52
6680;BME280;3376;42.664;23.346;2023-02-23T10:33:32;94422.13;;;22.75;30.31
6680;BME280;3376;42.664;23.346;2023-02-23T10:36:08;94429.25;;;22.48;30.46
6680;BME280;3376;42.664;23.346;2023-02-23T10:38:38;94418.19;;;21.97;31.33
6680;BME280;3376;42.664;23.346;2023-02-23T10:41:06;94430.91;;;22.00;31.45
6680;BME280;3376;42.664;23.346;2023-02-23T10:43:34;94417.38;;;22.18;31.32
6680;BME280;3376;42.664;23.346;2023-02-23T10:46:01;94419.72;;;22.42;30.93
6680;BME280;3376;42.664;23.346;2023-02-23T10:48:33;94419.47;;;23.06;30.57
6680;BME280;3376;42.664;23.346;2023-02-23T10:51:03;94415.81;;;23.64;29.29
6680;BME280;3376;42.664;23.346;2023-02-23T10:53:32;94413.66;;;24.18;28.54
6680;BME280;3376;42.664;23.346;2023-02-23T10:56:04;94393.22;;;24.03;28.89
6680;BME280;3376;42.664;23.346;2023-02-23T10:58:40;94406.53;;;24.23;29.28
6680;BME280;3376;42.664;23.346;2023-02-23T11:01:09;94405.47;;;24.19;28.35
6680;BME280;3376;42.664;23.346;2023-02-23T11:03:39;94402.44;;;23.86;28.72
6680;BME280;3376;42.664;23.346;2023-02-23T11:06:06;94397.78;;;23.46;28.75
6680;BME280;3376;42.664;23.346;2023-02-23T11:08:34;94396.72;;;23.52;29.30
6680;BME280;3376;42.664;23.346;2023-02-23T11:11:19;94391.41;;;23.42;29.21
6680;BME280;3376;42.664;23.346;2023-02-23T11:13:51;94383.31;;;23.17;30.19
6680;BME280;3376;42.664;23.346;2023-02-23T11:16:21;94388.09;;;23.25;30.44
6680;BME280;3376;42.664;23.346;2023-02-23T11:18:51;94382.16;;;23.40;29.27
6680;BME280;3376;42.664;23.346;2023-02-23T11:21:24;94382.78;;;23.67;29.10
6680;BME280;3376;42.664;23.346;2023-02-23T11:23:55;94382.91;;;24.07;28.84
6680;BME280;3376;42.664;23.346;2023-02-23T11:26:32;94376.88;;;24.52;28.07
6680;BME280;3376;42.664;23.346;2023-02-23T11:29:13;94368.94;;;24.62;28.51
6680;BME280;3376;42.664;23.346;2023-02-23T11:31:46;94379.03;;;24.75;28.40
6680;BME280;3376;42.664;23.346;2023-02-23T11:34:21;94345.09;;;24.57;28.04
6680;BME280;3376;42.664;23.346;2023-02-23T11:36:58;94369.97;;;24.15;28.55
6680;BME280;3376;42.664;23.346;2023-02-23T11:39:25;94368.25;;;23.84;29.09
6680;BME280;3376;42.664;23.346;2023-02-23T11:42:16;94362.19;;;23.79;29.35
6680;BME280;3376;42.664;23.346;2023-02-23T11:44:49;94359.03;;;23.87;28.93
6680;BME280;3376;42.664;23.346;2023-02-23T11:47:17;94354.88;;;24.06;29.27
6680;BME280;3376;42.664;23.346;2023-02-23T11:49:46;94357.81;;;24.29;29.00
6680;BME280;3376;42.664;23.346;2023-02-23T11:52:14;94361.00;;;24.41;27.95
6680;BME280;3376;42.664;23.346;2023-02-23T11:54:49;94352.50;;;24.39;28.79
6680;BME280;3376;42.664;23.346;2023-02-23T11:57:20;94355.41;;;24.13;28.84
6680;BME280;3376;42.664;23.346;2023-02-23T11:59:49;94352.47;;;23.99;29.27
6680;BME280;3376;42.664;23.346;2023-02-23T12:02:21;94352.06;;;23.66;29.59
6680;BME280;3376;42.664;23.346;2023-02-23T12:04:50;94342.75;;;23.43;30.35
6680;BME280;3376;42.664;23.346;2023-02-23T12:07:29;94352.78;;;23.41;30.18
6680;BME280;3376;42.664;23.346;2023-02-23T12:10:02;94348.25;;;23.32;30.72
6680;BME280;3376;42.664;23.346;2023-02-23T12:12:37;94347.91;;;23.23;29.95
6680;BME280;3376;42.664;23.346;2023-02-23T12:15:11;94342.50;;;23.50;29.40
6680;BME280;3376;42.664;23.346;2023-02-23T12:17:45;94334.06;;;23.53;29.40
6680;BME280;3376;42.664;23.346;2023-02-23T12:20:19;94339.66;;;23.66;29.07
6680;BME280;3376;42.664;23.346;2023-02-23T12:22:51;94341.22;;;23.62;29.02
6680;BME280;3376;42.664;23.346;2023-02-23T12:25:22;94336.44;;;23.54;29.31
6680;BME280;3376;42.664;23.346;2023-02-23T12:27:56;94336.31;;;23.24;29.35
6680;BME280;3376;42.664;23.346;2023-02-23T12:30:33;94331.97;;;23.03;29.58
6680;BME280;3376;42.664;23.346;2023-02-23T12:33:04;94330.97;;;22.67;30.33
6680;BME280;3376;42.664;23.346;2023-02-23T12:35:41;94329.88;;;22.32;31.04
6680;BME280;3376;42.664;23.346;2023-02-23T12:38:16;94330.34;;;21.97;31.30
6680;BME280;3376;42.664;23.346;2023-02-23T12:40:46;94323.91;;;21.61;31.77
6680;BME280;3376;42.664;23.346;2023-02-23T12:43:16;94334.75;;;21.43;32.33
6680;BME280;3376;42.664;23.346;2023-02-23T12:45:51;94332.91;;;21.22;33.29
6680;BME280;3376;42.664;23.346;2023-02-23T12:48:29;94329.91;;;21.14;33.55
6680;BME280;3376;42.664;23.346;2023-02-23T12:51:00;94329.25;;;21.23;33.27
6680;BME280;3376;42.664;23.346;2023-02-23T12:53:33;94320.91;;;21.31;33.30
6680;BME280;3376;42.664;23.346;2023-02-23T12:56:24;94328.75;;;21.48;32.76
6680;BME280;3376;42.664;23.346;2023-02-23T12:59:00;94327.31;;;21.62;32.64
6680;BME280;3376;42.664;23.346;2023-02-23T13:01:35;94322.03;;;21.62;32.26
6680;BME280;3376;42.664;23.346;2023-02-23T13:04:19;94317.03;;;21.60;32.44
6680;BME280;3376;42.664;23.346;2023-02-23T13:06:55;94316.75;;;21.35;33.02
6680;BME280;3376;42.664;23.346;2023-02-23T13:09:33;94313.94;;;21.20;33.17
6680;BME280;3376;42.664;23.346;2023-02-23T13:12:11;94322.88;;;21.19;33.44
6680;BME280;3376;42.664;23.346;2023-02-23T13:14:46;94319.88;;;21.32;33.45
6680;BME280;3376;42.664;23.346;2023-02-23T13:17:28;94322.94;;;21.24;33.00
6680;BME280;3376;42.664;23.346;2023-02-23T13:19:59;94320.72;;;20.94;33.88
6680;BME280;3376;42.664;23.346;2023-02-23T13:22:32;94311.06;;;20.83;34.32
6680;BME280;3376;42.664;23.346;2023-02-23T13:25:06;94304.63;;;20.74;34.58
6680;BME280;3376;42.664;23.346;2023-02-23T13:27:39;94322.09;;;20.80;34.10
6680;BME280;3376;42.664;23.346;2023-02-23T13:30:10;94305.72;;;20.78;34.04
6680;BME280;3376;42.664;23.346;2023-02-23T13:32:38;94312.03;;;20.77;33.95
6680;BME280;3376;42.664;23.346;2023-02-23T13:35:09;94314.06;;;20.70;35.23
6680;BME280;3376;42.664;23.346;2023-02-23T13:37:42;94306.22;;;20.59;34.79
6680;BME280;3376;42.664;23.346;2023-02-23T13:40:24;94301.16;;;20.52;34.61
6680;BME280;3376;42.664;23.346;2023-02-23T13:43:00;94306.25;;;20.42;34.93
6680;BME280;3376;42.664;23.346;2023-02-23T13:45:42;94294.63;;;20.38;34.72
6680;BME280;3376;42.664;23.346;2023-02-23T13:48:23;94306.59;;;20.29;34.85
6680;BME280;3376;42.664;23.346;2023-02-23T13:50:59;94317.13;;;20.29;35.26